createdAt,value
2018-01-27T00:01:29.536Z,9.53
2018-01-27T00:03:57.804Z,10.83
2018-01-27T00:06:26.830Z,11.67
2018-01-27T00:08:55.102Z,10.80
2018-01-27T00:11:23.402Z,11.73
2018-01-27T00:13:51.671Z,11.17
2018-01-27T00:16:19.969Z,11.93
2018-01-27T00:18:48.248Z,12.10
2018-01-27T00:21:16.575Z,13.57
2018-01-27T00:23:44.814Z,12.13
2018-01-27T00:26:13.049Z,12.23
2018-01-27T00:28:42.207Z,12.90
2018-01-27T00:31:10.500Z,11.70
2018-01-27T00:33:38.877Z,12.10
2018-01-27T00:36:07.140Z,12.60
2018-01-27T00:38:35.426Z,11.73
2018-01-27T00:41:03.701Z,13.30
2018-01-27T00:43:31.986Z,13.70
2018-01-27T00:46:00.257Z,14.17
2018-01-27T00:48:28.554Z,14.40
2018-01-27T00:50:56.805Z,15.40
2018-01-27T00:53:25.089Z,14.70
2018-01-27T00:55:53.366Z,15.10
2018-01-27T00:58:21.643Z,13.20
2018-01-27T01:00:49.951Z,14.60
2018-01-27T01:03:18.237Z,15.70
2018-01-27T01:05:46.527Z,16.80
2018-01-27T01:08:14.826Z,14.90
2018-01-27T01:10:43.070Z,14.73
2018-01-27T01:13:11.333Z,15.50
2018-01-27T01:15:39.617Z,13.83
2018-01-27T01:18:07.882Z,13.13
2018-01-27T01:20:36.139Z,12.87
2018-01-27T01:23:05.167Z,14.30
2018-01-27T01:25:33.447Z,14.40
2018-01-27T01:28:01.730Z,13.27
2018-01-27T01:30:30.010Z,15.23
2018-01-27T01:32:58.280Z,12.10
2018-01-27T01:35:26.573Z,12.57
2018-01-27T01:37:54.838Z,13.87
2018-01-27T01:40:23.149Z,14.33
2018-01-27T01:42:57.208Z,15.17
2018-01-27T01:45:26.233Z,14.47
2018-01-27T01:47:54.507Z,14.90
2018-01-27T01:50:22.771Z,15.60
2018-01-27T01:52:51.047Z,13.30
2018-01-27T01:55:20.066Z,15.00
2018-01-27T01:57:48.366Z,13.17
2018-01-27T02:00:16.615Z,14.50
2018-01-27T02:02:44.931Z,13.57
2018-01-27T02:05:13.179Z,15.83
2018-01-27T02:07:41.482Z,13.23
2018-01-27T02:10:09.869Z,13.40
2018-01-27T02:12:38.147Z,13.67
2018-01-27T02:15:06.406Z,15.00
2018-01-27T02:17:34.707Z,13.07
2018-01-27T02:20:02.979Z,12.90
2018-01-27T02:22:31.239Z,12.07
2018-01-27T02:24:59.502Z,12.20
2018-01-27T02:27:28.518Z,13.10
2018-01-27T02:29:56.926Z,12.67
2018-01-27T02:32:25.175Z,13.00
2018-01-27T02:34:53.443Z,12.63
2018-01-27T02:37:22.482Z,12.37
2018-01-27T02:39:50.770Z,12.83
2018-01-27T02:42:19.040Z,12.77
2018-01-27T02:44:47.332Z,12.70
2018-01-27T02:47:15.587Z,12.80
2018-01-27T02:49:43.851Z,11.37
2018-01-27T02:52:12.888Z,10.83
2018-01-27T02:54:41.167Z,11.87
2018-01-27T02:57:09.442Z,11.03
2018-01-27T02:59:37.710Z,10.10
2018-01-27T03:02:05.972Z,11.40
2018-01-27T03:04:34.281Z,12.50
2018-01-27T03:07:02.537Z,12.20
2018-01-27T03:09:30.846Z,11.00
2018-01-27T03:11:59.126Z,12.77
2018-01-27T03:14:27.394Z,15.90
2018-01-27T03:16:55.645Z,13.07
2018-01-27T03:19:24.686Z,12.33
2018-01-27T03:21:52.943Z,11.20
2018-01-27T03:24:21.238Z,16.00
2018-01-27T03:26:49.591Z,11.43
2018-01-27T03:29:17.866Z,11.03
2018-01-27T03:31:46.117Z,12.13
2018-01-27T03:34:15.181Z,10.80
2018-01-27T03:36:43.435Z,10.10
2018-01-27T03:39:11.740Z,10.00
2018-01-27T03:41:40.057Z,9.80
2018-01-27T03:44:08.305Z,7.67
2018-01-27T03:46:36.569Z,8.50
2018-01-27T03:49:04.970Z,7.73
2018-01-27T03:51:33.282Z,7.97
2018-01-27T03:54:01.627Z,8.43
2018-01-27T03:56:29.886Z,8.43
2018-01-27T03:58:58.149Z,8.07
2018-01-27T04:01:26.502Z,7.83
2018-01-27T04:03:54.845Z,8.73
2018-01-27T04:06:23.094Z,10.30
2018-01-27T04:08:51.355Z,8.77
2018-01-27T04:11:20.386Z,9.10
2018-01-27T04:13:48.658Z,9.10
2018-01-27T04:16:16.910Z,8.80
2018-01-27T04:18:45.938Z,8.13
2018-01-27T04:21:14.199Z,11.00
2018-01-27T04:23:42.461Z,9.50
2018-01-27T04:26:11.475Z,9.40
2018-01-27T04:28:40.544Z,9.93
2018-01-27T04:31:08.764Z,10.37
2018-01-27T04:33:37.089Z,9.27
2018-01-27T04:36:05.333Z,9.07
2018-01-27T04:38:33.642Z,10.37
2018-01-27T04:41:01.887Z,9.30
2018-01-27T04:43:30.147Z,10.13
2018-01-27T04:45:59.159Z,8.97
2018-01-27T04:48:27.432Z,9.73
2018-01-27T04:50:56.464Z,9.53
2018-01-27T04:53:24.725Z,8.40
2018-01-27T04:55:53.042Z,8.70
2018-01-27T04:58:21.404Z,11.07
2018-01-27T05:00:49.659Z,10.20
2018-01-27T05:03:17.929Z,10.37
2018-01-27T05:05:46.938Z,8.90
2018-01-27T05:08:15.249Z,8.97
2018-01-27T05:10:43.522Z,7.20
2018-01-27T05:13:11.809Z,7.70
2018-01-27T05:15:40.069Z,8.20
2018-01-27T05:18:08.312Z,8.83
2018-01-27T05:20:36.594Z,8.20
2018-01-27T05:23:05.657Z,8.20
2018-01-27T05:25:34.031Z,8.70
2018-01-27T05:28:02.267Z,8.57
2018-01-27T05:30:31.307Z,8.00
2018-01-27T05:32:59.623Z,8.80
2018-01-27T05:35:27.874Z,8.43
2018-01-27T05:37:56.114Z,8.10
2018-01-27T05:40:24.382Z,8.40
2018-01-27T05:42:54.164Z,8.50
2018-01-27T05:45:22.425Z,9.20
2018-01-27T05:47:50.662Z,8.23
2018-01-27T05:50:19.691Z,7.90
2018-01-27T05:52:47.959Z,5.93
2018-01-27T05:55:16.229Z,7.17
2018-01-27T05:57:45.256Z,6.37
2018-01-27T06:00:13.518Z,7.67
2018-01-27T06:02:41.778Z,7.20
2018-01-27T06:05:10.812Z,6.53
2018-01-27T06:07:39.089Z,6.40
2018-01-27T06:10:07.373Z,7.00
2018-01-27T06:12:35.626Z,7.60
2018-01-27T06:15:03.898Z,6.83
2018-01-27T06:17:32.926Z,8.10
2018-01-27T06:20:01.209Z,7.27
2018-01-27T06:22:29.499Z,6.33
2018-01-27T06:24:57.779Z,6.10
2018-01-27T06:27:26.017Z,5.13
2018-01-27T06:29:55.292Z,6.30
2018-01-27T06:32:23.541Z,6.00
2018-01-27T06:34:51.823Z,6.70
2018-01-27T06:37:20.079Z,6.00
2018-01-27T06:39:48.356Z,5.40
2018-01-27T06:42:16.663Z,6.87
2018-01-27T06:44:44.951Z,6.30
2018-01-27T06:47:13.185Z,6.67
2018-01-27T06:49:41.443Z,6.37
2018-01-27T06:52:10.527Z,6.83
2018-01-27T06:54:39.530Z,6.97
2018-01-27T06:57:07.800Z,6.33
2018-01-27T06:59:36.080Z,5.17
2018-01-27T07:02:04.339Z,6.43
2018-01-27T07:04:32.609Z,5.70
2018-01-27T07:07:00.849Z,6.27
2018-01-27T07:09:29.991Z,5.97
2018-01-27T07:11:58.237Z,6.27
2018-01-27T07:14:27.307Z,8.23
2018-01-27T07:16:55.661Z,5.97
2018-01-27T07:19:23.931Z,6.33
2018-01-27T07:21:52.189Z,5.40
2018-01-27T07:24:20.482Z,6.80
2018-01-27T07:26:48.780Z,6.10
2018-01-27T07:29:17.035Z,7.20
2018-01-27T07:31:45.292Z,6.63
2018-01-27T07:34:13.572Z,6.83
2018-01-27T07:36:41.901Z,6.17
2018-01-27T07:39:10.158Z,8.17
2018-01-27T07:41:38.434Z,8.37
2018-01-27T07:44:06.714Z,6.30
2018-01-27T07:46:35.045Z,7.47
2018-01-27T07:49:03.349Z,7.33
2018-01-27T07:51:32.351Z,9.13
2018-01-27T07:54:00.629Z,11.33
2018-01-27T07:56:30.240Z,8.63
2018-01-27T07:58:58.515Z,8.40
2018-01-27T08:01:27.544Z,8.70
2018-01-27T08:03:55.833Z,8.20
2018-01-27T08:06:24.110Z,7.97
2018-01-27T08:08:52.359Z,8.63
2018-01-27T08:11:20.667Z,9.20
2018-01-27T08:13:48.940Z,8.73
2018-01-27T08:16:17.228Z,7.70
2018-01-27T08:18:45.473Z,9.00
2018-01-27T08:21:14.490Z,11.00
2018-01-27T08:23:42.733Z,9.60
2018-01-27T08:26:11.881Z,9.93
2018-01-27T08:28:40.118Z,9.73
2018-01-27T08:31:09.146Z,10.30
2018-01-27T08:33:37.768Z,10.07
2018-01-27T08:36:06.250Z,9.70
2018-01-27T08:38:34.848Z,10.60
2018-01-27T08:41:03.252Z,10.37
2018-01-27T08:43:31.629Z,10.10
2018-01-27T08:46:00.234Z,10.87
2018-01-27T08:48:28.815Z,9.93
2018-01-27T08:50:57.392Z,11.40
2018-01-27T08:53:25.892Z,10.60
2018-01-27T08:55:54.226Z,9.00
2018-01-27T08:58:22.498Z,11.57
2018-01-27T09:00:50.762Z,10.67
2018-01-27T09:03:19.006Z,10.20
2018-01-27T09:05:47.263Z,9.80
2018-01-27T09:08:15.511Z,10.27
2018-01-27T09:10:43.804Z,10.43
2018-01-27T09:13:12.060Z,10.00
2018-01-27T09:15:40.317Z,10.80
2018-01-27T09:18:09.366Z,10.80
2018-01-27T09:20:37.647Z,10.87
2018-01-27T09:23:05.906Z,12.07
2018-01-27T09:25:34.182Z,9.90
2018-01-27T09:28:03.307Z,11.27
2018-01-27T09:30:31.821Z,11.13
2018-01-27T09:33:00.106Z,12.20
2018-01-27T09:35:28.366Z,11.53
2018-01-27T09:37:56.613Z,12.23
2018-01-27T09:40:24.893Z,12.20
2018-01-27T09:42:53.906Z,12.27
2018-01-27T09:45:22.187Z,13.10
2018-01-27T09:47:50.463Z,12.20
2018-01-27T09:50:18.733Z,11.53
2018-01-27T09:52:46.978Z,11.50
2018-01-27T09:55:16.031Z,11.00
2018-01-27T09:57:44.348Z,12.20
2018-01-27T10:00:12.611Z,12.37
2018-01-27T10:02:40.869Z,13.27
2018-01-27T10:05:09.154Z,13.37
2018-01-27T10:07:37.418Z,13.20
2018-01-27T10:10:05.855Z,12.90
2018-01-27T10:12:34.864Z,13.50
2018-01-27T10:15:03.895Z,15.07
2018-01-27T10:17:32.151Z,13.50
2018-01-27T10:20:01.196Z,14.50
2018-01-27T10:22:29.437Z,13.60
2018-01-27T10:24:57.770Z,15.50
2018-01-27T10:27:26.035Z,14.93
2018-01-27T10:29:54.341Z,13.90
2018-01-27T10:32:22.842Z,14.97
2018-01-27T10:34:51.918Z,13.57
2018-01-27T10:37:20.130Z,14.37
2018-01-27T10:39:49.160Z,16.27
2018-01-27T10:42:17.414Z,15.77
2018-01-27T10:44:45.694Z,16.97
2018-01-27T10:47:13.954Z,16.33
2018-01-27T10:49:42.225Z,16.27
2018-01-27T10:52:10.467Z,15.17
2018-01-27T10:54:38.783Z,16.33
2018-01-27T10:57:07.030Z,17.00
2018-01-27T10:59:35.317Z,16.77
2018-01-27T11:02:03.699Z,16.80
2018-01-27T11:04:31.974Z,18.37
2018-01-27T11:07:00.234Z,17.50
2018-01-27T11:09:28.481Z,18.17
2018-01-27T11:11:57.669Z,17.20
2018-01-27T11:14:26.257Z,16.33
2018-01-27T11:16:55.248Z,18.00
2018-01-27T11:19:23.534Z,17.00
2018-01-27T11:21:53.318Z,15.87
2018-01-27T11:24:21.558Z,16.67
2018-01-27T11:26:49.838Z,18.43
2018-01-27T11:29:18.090Z,17.90
2018-01-27T11:31:47.157Z,17.53
2018-01-27T11:34:15.421Z,16.97
2018-01-27T11:36:43.692Z,20.00
2018-01-27T11:39:11.983Z,17.07
2018-01-27T11:41:40.277Z,17.07
2018-01-27T11:44:08.535Z,17.60
2018-01-27T11:46:36.812Z,17.13
2018-01-27T11:49:05.053Z,19.03
2018-01-27T11:51:33.323Z,17.20
2018-01-27T11:54:01.661Z,18.40
2018-01-27T11:56:30.006Z,18.20
2018-01-27T11:58:59.044Z,19.67
2018-01-27T12:01:27.328Z,18.80
2018-01-27T12:03:55.573Z,19.00
2018-01-27T12:06:24.718Z,22.53
2018-01-27T12:08:52.989Z,18.57
2018-01-27T12:11:21.270Z,21.87
2018-01-27T12:13:49.519Z,19.87
2018-01-27T12:16:18.543Z,21.97
2018-01-27T12:18:46.825Z,20.97
2018-01-27T12:21:15.080Z,20.43
2018-01-27T12:23:43.346Z,21.63
2018-01-27T12:26:12.369Z,20.07
2018-01-27T12:28:40.649Z,20.93
2018-01-27T12:31:08.904Z,22.30
2018-01-27T12:33:37.972Z,21.30
2018-01-27T12:36:06.199Z,21.07
2018-01-27T12:38:34.468Z,18.13
2018-01-27T12:41:02.775Z,21.53
2018-01-27T12:43:31.034Z,23.47
2018-01-27T12:45:59.279Z,21.27
2018-01-27T12:48:27.719Z,22.30
2018-01-27T12:50:56.035Z,22.07
2018-01-27T12:53:24.273Z,22.80
2018-01-27T12:55:52.521Z,22.17
2018-01-27T12:58:21.546Z,22.37
2018-01-27T13:00:49.798Z,22.70
2018-01-27T13:03:19.043Z,23.07
2018-01-27T13:05:47.321Z,22.60
2018-01-27T13:08:15.594Z,24.80
2018-01-27T13:10:43.881Z,24.63
2018-01-27T13:13:12.144Z,21.90
2018-01-27T13:15:40.394Z,23.47
2018-01-27T13:18:09.421Z,24.00
2018-01-27T13:20:37.675Z,25.07
2018-01-27T13:23:05.950Z,23.87
2018-01-27T13:25:34.957Z,23.67
2018-01-27T13:28:03.198Z,23.57
2018-01-27T13:30:32.341Z,25.03
2018-01-27T13:33:00.586Z,25.13
2018-01-27T13:35:28.849Z,26.63
2018-01-27T13:37:57.181Z,26.80
2018-01-27T13:40:25.827Z,28.07
2018-01-27T13:42:54.226Z,27.40
2018-01-27T13:45:23.148Z,25.57
2018-01-27T13:47:51.869Z,29.23
2018-01-27T13:50:20.589Z,28.40
2018-01-27T13:52:49.104Z,25.83
2018-01-27T13:55:17.710Z,26.80
2018-01-27T13:57:46.269Z,27.93
2018-01-27T14:00:14.941Z,27.47
2018-01-27T14:02:44.348Z,27.57
2018-01-27T14:05:13.334Z,25.73
2018-01-27T14:07:41.800Z,30.33
2018-01-27T14:10:10.146Z,27.23
2018-01-27T14:12:39.215Z,26.47
2018-01-27T14:15:07.518Z,27.10
2018-01-27T14:17:35.958Z,29.33
2018-01-27T14:20:04.668Z,24.70
2018-01-27T14:22:33.018Z,27.40
2018-01-27T14:25:01.288Z,27.07
2018-01-27T14:27:29.580Z,27.43
2018-01-27T14:29:57.822Z,28.13
2018-01-27T14:32:26.170Z,25.67
2018-01-27T14:34:54.426Z,24.23
2018-01-27T14:37:22.686Z,27.63
2018-01-27T14:39:51.016Z,26.57
2018-01-27T14:42:19.244Z,27.50
2018-01-27T14:44:48.087Z,28.27
2018-01-27T14:47:17.149Z,28.30
2018-01-27T14:49:45.405Z,26.40
2018-01-27T14:52:13.670Z,26.83
2018-01-27T14:54:42.734Z,24.60
2018-01-27T14:57:11.011Z,24.70
2018-01-27T14:59:39.254Z,26.50
2018-01-27T15:02:07.524Z,26.97
2018-01-27T15:04:36.527Z,26.30
2018-01-27T15:07:04.797Z,27.53
2018-01-27T15:09:33.859Z,26.80
2018-01-27T15:12:02.352Z,27.40
2018-01-27T15:14:30.608Z,25.80
2018-01-27T15:16:58.893Z,26.40
2018-01-27T15:19:27.304Z,29.53
2018-01-27T15:21:55.780Z,27.40
2018-01-27T15:24:24.118Z,27.40
2018-01-27T15:26:52.385Z,28.40
2018-01-27T15:29:20.638Z,28.30
2018-01-27T15:31:49.671Z,29.03
2018-01-27T15:34:17.992Z,27.07
2018-01-27T15:36:47.806Z,28.50
2018-01-27T15:39:17.315Z,29.40
2018-01-27T15:41:45.805Z,30.53
2018-01-27T15:44:14.854Z,29.30
2018-01-27T15:46:44.066Z,29.13
2018-01-27T15:49:12.336Z,27.20
2018-01-27T15:51:40.615Z,31.00
2018-01-27T15:54:08.938Z,31.27
2018-01-27T15:56:37.174Z,26.83
2018-01-27T15:59:05.453Z,27.90
2018-01-27T16:01:33.738Z,26.40
2018-01-27T16:04:02.052Z,25.47
2018-01-27T16:06:30.315Z,24.23
2018-01-27T16:08:58.582Z,24.70
2018-01-27T16:11:26.851Z,24.87
2018-01-27T16:13:55.126Z,26.73
2018-01-27T16:16:23.436Z,26.30
2018-01-27T16:18:51.681Z,24.77
2018-01-27T16:21:19.947Z,26.37
2018-01-27T16:23:48.195Z,23.10
2018-01-27T16:26:17.222Z,25.00
2018-01-27T16:28:46.334Z,23.57
2018-01-27T16:31:14.608Z,24.33
2018-01-27T16:33:42.849Z,23.93
2018-01-27T16:36:11.883Z,23.60
2018-01-27T16:38:40.293Z,21.10
2018-01-27T16:41:08.603Z,22.43
2018-01-27T16:43:36.838Z,22.67
2018-01-27T16:46:05.118Z,22.37
2018-01-27T16:48:33.402Z,21.27
2018-01-27T16:51:01.686Z,24.07
2018-01-27T16:53:30.019Z,21.13
2018-01-27T16:55:58.276Z,24.47
2018-01-27T16:58:26.521Z,25.60
2018-01-27T17:00:54.800Z,25.40
2018-01-27T17:03:23.100Z,25.00
2018-01-27T17:05:51.346Z,23.93
2018-01-27T17:08:19.899Z,25.30
2018-01-27T17:10:48.117Z,22.40
2018-01-27T17:13:16.391Z,22.07
2018-01-27T17:15:44.720Z,22.37
2018-01-27T17:18:12.960Z,19.37
2018-01-27T17:20:41.247Z,24.90
2018-01-27T17:23:09.529Z,21.83
2018-01-27T17:25:37.917Z,22.73
2018-01-27T17:28:06.180Z,22.47
2018-01-27T17:30:34.421Z,20.33
2018-01-27T17:33:03.454Z,23.30
2018-01-27T17:35:31.710Z,22.80
2018-01-27T17:38:00.743Z,24.50
2018-01-27T17:40:28.997Z,21.63
2018-01-27T17:42:58.139Z,21.13
2018-01-27T17:45:26.418Z,19.50
2018-01-27T17:47:54.704Z,22.00
2018-01-27T17:50:22.954Z,23.27
2018-01-27T17:52:51.236Z,20.67
2018-01-27T17:55:19.483Z,22.03
2018-01-27T17:57:48.509Z,22.20
2018-01-27T18:00:16.837Z,28.17
2018-01-27T18:02:45.189Z,25.03
2018-01-27T18:05:13.439Z,21.90
2018-01-27T18:07:41.711Z,20.47
2018-01-27T18:10:09.985Z,21.80
2018-01-27T18:12:38.288Z,18.40
2018-01-27T18:15:06.567Z,20.37
2018-01-27T18:17:34.829Z,18.53
2018-01-27T18:20:04.579Z,20.07
2018-01-27T18:22:32.838Z,18.87
2018-01-27T18:25:01.090Z,18.07
2018-01-27T18:27:30.113Z,20.30
2018-01-27T18:29:58.440Z,18.80
2018-01-27T18:32:26.798Z,20.77
2018-01-27T18:34:55.064Z,21.73
2018-01-27T18:37:23.327Z,19.93
2018-01-27T18:39:51.571Z,20.20
2018-01-27T18:42:20.625Z,21.73
2018-01-27T18:44:48.937Z,21.93
2018-01-27T18:47:17.170Z,21.87
2018-01-27T18:49:45.495Z,21.70
2018-01-27T18:52:13.727Z,21.87
2018-01-27T18:54:42.059Z,24.83
2018-01-27T18:57:10.304Z,23.43
2018-01-27T18:59:38.547Z,22.83
2018-01-27T19:02:06.891Z,24.30
2018-01-27T19:04:35.171Z,20.97
2018-01-27T19:07:03.450Z,23.73
2018-01-27T19:09:31.813Z,22.43
2018-01-27T19:12:00.094Z,22.10
2018-01-27T19:14:28.368Z,21.23
2018-01-27T19:16:56.625Z,21.87
2018-01-27T19:19:24.883Z,22.40
2018-01-27T19:21:53.166Z,22.43
2018-01-27T19:24:21.423Z,21.10
2018-01-27T19:26:49.708Z,24.23
2018-01-27T19:29:18.758Z,21.13
2018-01-27T19:31:47.029Z,23.30
2018-01-27T19:34:15.307Z,21.83
2018-01-27T19:36:43.574Z,21.60
2018-01-27T19:39:11.830Z,21.90
2018-01-27T19:41:40.862Z,21.00
2018-01-27T19:44:09.121Z,21.37
2018-01-27T19:46:37.389Z,22.47
2018-01-27T19:49:05.741Z,23.03
2018-01-27T19:51:33.977Z,24.03
2018-01-27T19:54:02.268Z,24.97
2018-01-27T19:56:30.566Z,24.30
2018-01-27T19:58:58.821Z,25.10
2018-01-27T20:01:27.133Z,26.90
2018-01-27T20:03:55.865Z,26.20
2018-01-27T20:06:24.156Z,24.77
2018-01-27T20:08:52.413Z,28.07
2018-01-27T20:11:21.463Z,28.23
2018-01-27T20:13:49.717Z,27.87
2018-01-27T20:16:17.989Z,28.40
2018-01-27T20:18:46.286Z,28.20
2018-01-27T20:21:14.578Z,27.10
2018-01-27T20:23:42.850Z,27.10
2018-01-27T20:26:11.103Z,26.00
2018-01-27T20:28:39.374Z,29.53
2018-01-27T20:31:08.421Z,27.90
2018-01-27T20:33:36.665Z,27.00
2018-01-27T20:36:04.913Z,29.00
2018-01-27T20:38:33.972Z,28.00
2018-01-27T20:41:02.263Z,26.97
2018-01-27T20:43:30.630Z,30.23
2018-01-27T20:45:58.885Z,29.50
2018-01-27T20:48:27.145Z,29.50
2018-01-27T20:50:56.208Z,23.00
2018-01-27T20:53:24.481Z,24.57
2018-01-27T20:55:52.738Z,22.40
2018-01-27T20:58:21.015Z,21.83
2018-01-27T21:00:49.266Z,19.80
2018-01-27T21:03:17.583Z,16.93
2018-01-27T21:05:46.539Z,16.50
2018-01-27T21:08:15.628Z,17.03
2018-01-27T21:10:44.670Z,16.13
2018-01-27T21:13:12.930Z,16.93
2018-01-27T21:15:41.199Z,18.30
2018-01-27T21:18:10.227Z,20.10
2018-01-27T21:20:38.506Z,20.37
2018-01-27T21:23:06.777Z,21.50
2018-01-27T21:25:35.103Z,24.00
2018-01-27T21:28:03.381Z,23.00
2018-01-27T21:30:31.606Z,24.67
2018-01-27T21:32:59.868Z,25.60
2018-01-27T21:35:28.197Z,25.20
2018-01-27T21:37:58.035Z,24.80
2018-01-27T21:40:26.303Z,27.60
2018-01-27T21:42:54.664Z,26.53
2018-01-27T21:45:22.913Z,24.60
2018-01-27T21:47:51.238Z,23.73
2018-01-27T21:50:19.494Z,27.80
2018-01-27T21:52:47.764Z,27.33
2018-01-27T21:55:16.044Z,25.67
2018-01-27T21:57:45.301Z,26.03
2018-01-27T22:00:14.606Z,23.77
2018-01-27T22:02:42.918Z,27.30
2018-01-27T22:05:11.475Z,25.50
2018-01-27T22:07:39.860Z,22.97
2018-01-27T22:10:08.313Z,23.70
2018-01-27T22:12:36.575Z,24.53
2018-01-27T22:15:04.815Z,23.57
2018-01-27T22:17:33.842Z,24.63
2018-01-27T22:20:02.095Z,25.73
2018-01-27T22:22:31.141Z,24.60
2018-01-27T22:24:59.407Z,23.50
2018-01-27T22:27:27.659Z,23.70
2018-01-27T22:29:55.917Z,24.10
2018-01-27T22:32:24.251Z,22.60
2018-01-27T22:34:52.494Z,23.40
2018-01-27T22:37:20.763Z,26.03
2018-01-27T22:39:49.778Z,23.73
2018-01-27T22:42:18.041Z,21.27
2018-01-27T22:44:47.074Z,24.07
2018-01-27T22:47:15.357Z,20.87
2018-01-27T22:49:43.642Z,21.37
2018-01-27T22:52:11.902Z,21.57
2018-01-27T22:54:40.234Z,23.60
2018-01-27T22:57:08.469Z,22.20
2018-01-27T22:59:36.924Z,21.63
2018-01-27T23:02:06.041Z,22.50
2018-01-27T23:04:34.286Z,20.23
2018-01-27T23:07:02.631Z,20.73
2018-01-27T23:09:31.005Z,20.70
2018-01-27T23:11:59.261Z,21.20
2018-01-27T23:14:27.569Z,19.50
2018-01-27T23:16:55.816Z,22.93
2018-01-27T23:19:24.130Z,20.90
2018-01-27T23:21:52.402Z,19.20
2018-01-27T23:24:20.720Z,21.33
2018-01-27T23:26:49.111Z,23.00
2018-01-27T23:29:18.157Z,18.37
2018-01-27T23:31:46.449Z,20.77
2018-01-27T23:34:14.717Z,20.60
2018-01-27T23:36:42.959Z,20.57
2018-01-27T23:39:12.003Z,20.90
2018-01-27T23:41:40.296Z,22.10
2018-01-27T23:44:08.561Z,24.33
2018-01-27T23:46:36.810Z,22.53
2018-01-27T23:49:05.118Z,22.83
2018-01-27T23:51:33.434Z,23.37
2018-01-27T23:54:01.669Z,20.83
2018-01-27T23:56:29.917Z,20.80
2018-01-27T23:58:58.959Z,21.30
